createdAt,value
2018-10-09T00:02:22.430Z,14.00
2018-10-09T00:04:53.110Z,14.00
2018-10-09T00:07:23.056Z,14.50
2018-10-09T00:09:55.683Z,16.75
2018-10-09T00:12:25.378Z,15.50
2018-10-09T00:14:55.387Z,14.50
2018-10-09T00:17:25.195Z,18.50
2018-10-09T00:19:54.834Z,17.25
2018-10-09T00:22:24.259Z,15.75
2018-10-09T00:24:53.855Z,15.75
2018-10-09T00:27:24.467Z,14.25
2018-10-09T00:29:54.348Z,16.25
2018-10-09T00:32:24.151Z,17.00
2018-10-09T00:34:54.996Z,15.25
2018-10-09T00:37:24.845Z,16.50
2018-10-09T00:39:54.388Z,14.75
2018-10-09T00:42:24.464Z,18.00
2018-10-09T00:44:54.715Z,18.75
2018-10-09T00:47:24.358Z,19.00
2018-10-09T00:49:54.428Z,17.75
2018-10-09T00:52:24.452Z,19.50
2018-10-09T00:54:54.542Z,18.25
2018-10-09T00:57:26.116Z,17.00
2018-10-09T00:59:56.152Z,18.00
2018-10-09T01:05:03.428Z,18.25
2018-10-09T01:07:33.355Z,16.50
2018-10-09T01:10:03.209Z,18.25
2018-10-09T01:12:34.666Z,14.75
2018-10-09T01:15:07.727Z,16.50
2018-10-09T01:17:37.993Z,18.25
2018-10-09T01:20:11.547Z,17.25
2018-10-09T01:22:55.179Z,16.50
2018-10-09T01:25:24.772Z,19.75
2018-10-09T01:27:54.433Z,18.00
2018-10-09T01:30:25.142Z,19.25
2018-10-09T01:32:54.711Z,19.75
2018-10-09T01:35:33.171Z,17.75
2018-10-09T01:38:02.992Z,20.50
2018-10-09T01:40:37.172Z,17.50
2018-10-09T01:43:07.313Z,18.00
2018-10-09T01:45:37.292Z,16.75
2018-10-09T01:48:07.340Z,18.25
2018-10-09T01:50:37.343Z,17.25
2018-10-09T01:53:07.075Z,18.00
2018-10-09T01:55:36.983Z,18.25
2018-10-09T01:58:14.147Z,19.00
2018-10-09T02:00:47.442Z,18.50
2018-10-09T02:03:18.021Z,19.25
2018-10-09T02:05:47.833Z,17.50
2018-10-09T02:08:21.806Z,18.75
2018-10-09T02:10:51.373Z,18.50
2018-10-09T02:13:21.023Z,16.75
2018-10-09T02:15:50.837Z,20.25
2018-10-09T02:18:20.532Z,18.75
2018-10-09T02:20:50.197Z,18.25
2018-10-09T02:23:19.789Z,19.75
2018-10-09T02:25:50.496Z,19.50
2018-10-09T02:28:19.885Z,21.00
2018-10-09T02:30:59.454Z,18.75
2018-10-09T02:33:28.995Z,17.75
2018-10-09T02:35:58.643Z,21.25
2018-10-09T02:38:28.185Z,20.00
2018-10-09T02:40:57.734Z,20.00
2018-10-09T02:43:27.586Z,20.75
2018-10-09T02:45:58.117Z,22.00
2018-10-09T02:48:29.572Z,22.25
2018-10-09T02:50:59.233Z,24.25
2018-10-09T02:53:29.539Z,21.75
2018-10-09T02:55:59.139Z,21.25
2018-10-09T02:58:28.703Z,21.00
2018-10-09T03:00:58.753Z,22.25
2018-10-09T03:03:28.250Z,19.75
2018-10-09T03:05:58.449Z,24.00
2018-10-09T03:08:27.956Z,23.00
2018-10-09T03:10:57.694Z,23.25
2018-10-09T03:13:30.496Z,20.25
2018-10-09T03:16:00.333Z,23.00
2018-10-09T03:18:31.823Z,22.75
2018-10-09T03:21:01.756Z,20.25
2018-10-09T03:23:31.211Z,19.50
2018-10-09T03:26:01.225Z,20.00
2018-10-09T03:28:30.838Z,21.25
2018-10-09T03:31:06.630Z,23.00
2018-10-09T03:33:37.387Z,18.75
2018-10-09T03:36:06.899Z,19.50
2018-10-09T03:38:36.382Z,20.00
2018-10-09T03:41:05.855Z,21.75
2018-10-09T03:43:35.323Z,20.00
2018-10-09T03:46:07.770Z,20.50
2018-10-09T03:48:39.442Z,20.75
2018-10-09T03:51:09.555Z,20.00
2018-10-09T03:53:39.990Z,20.00
2018-10-09T03:56:09.821Z,19.00
2018-10-09T03:58:39.530Z,21.50
2018-10-09T04:01:09.653Z,19.50
2018-10-09T04:03:40.220Z,21.00
2018-10-09T04:06:10.157Z,20.00
2018-10-09T04:08:39.893Z,22.00
2018-10-09T04:11:10.116Z,20.50
2018-10-09T04:13:39.730Z,22.25
2018-10-09T04:16:10.694Z,20.50
2018-10-09T04:18:42.418Z,20.50
2018-10-09T04:21:18.063Z,20.25
2018-10-09T04:23:48.324Z,21.75
2018-10-09T04:26:18.798Z,22.25
2018-10-09T04:28:48.333Z,18.75
2018-10-09T04:31:18.569Z,22.75
2018-10-09T04:33:48.941Z,21.25
2018-10-09T04:36:19.697Z,20.50
2018-10-09T04:38:52.057Z,19.25
2018-10-09T04:41:22.445Z,21.00
2018-10-09T04:43:52.024Z,18.50
2018-10-09T04:46:22.592Z,20.50
2018-10-09T04:48:52.937Z,21.00
2018-10-09T04:51:24.239Z,23.50
2018-10-09T04:53:55.045Z,21.50
2018-10-09T04:56:24.715Z,21.00
2018-10-09T04:58:54.551Z,24.00
2018-10-09T05:01:24.519Z,23.75
2018-10-09T05:03:54.225Z,21.00
2018-10-09T05:06:23.757Z,24.50
2018-10-09T05:11:20.000Z,23.50
2018-10-09T05:13:49.569Z,23.25
2018-10-09T05:16:19.696Z,23.50
2018-10-09T05:19:19.746Z,21.25
2018-10-09T05:21:49.520Z,22.75
2018-10-09T05:24:19.688Z,21.00
2018-10-09T05:26:49.260Z,21.50
2018-10-09T05:29:18.759Z,22.75
2018-10-09T05:31:48.994Z,21.00
2018-10-09T05:34:22.167Z,25.25
2018-10-09T05:36:52.261Z,28.00
2018-10-09T05:39:21.953Z,26.50
2018-10-09T05:41:54.758Z,25.75
2018-10-09T05:44:24.527Z,28.75
2018-10-09T05:46:54.222Z,26.75
2018-10-09T05:49:26.434Z,28.75
2018-10-09T05:51:56.470Z,27.75
2018-10-09T05:54:27.927Z,26.75
2018-10-09T05:57:04.001Z,28.75
2018-10-09T05:59:35.391Z,27.00
2018-10-09T06:02:08.056Z,27.25
2018-10-09T06:04:41.479Z,26.25
2018-10-09T06:07:12.241Z,25.75
2018-10-09T06:09:45.836Z,27.50
2018-10-09T06:12:17.191Z,28.25
2018-10-09T06:14:46.898Z,28.25
2018-10-09T06:17:18.065Z,28.75
2018-10-09T06:19:51.203Z,29.25
2018-10-09T06:22:24.676Z,26.75
2018-10-09T06:27:39.609Z,28.00
2018-10-09T06:30:16.244Z,28.75
2018-10-09T06:32:46.711Z,29.00
2018-10-09T06:35:16.358Z,34.25
2018-10-09T06:37:47.234Z,31.75
2018-10-09T06:40:17.884Z,31.00
2018-10-09T06:42:52.220Z,26.75
2018-10-09T06:45:25.378Z,27.00
2018-10-09T06:48:01.795Z,28.75
2018-10-09T06:50:33.350Z,28.25
2018-10-09T06:53:04.390Z,28.25
2018-10-09T06:55:36.115Z,26.75
2018-10-09T06:58:10.012Z,24.75
2018-10-09T07:00:42.745Z,26.25
2018-10-09T07:03:16.778Z,26.25
2018-10-09T07:05:48.241Z,29.25
2018-10-09T07:08:19.088Z,30.25
2018-10-09T07:10:50.174Z,25.25
2018-10-09T07:13:20.726Z,27.00
2018-10-09T07:15:52.337Z,28.75
2018-10-09T07:18:21.886Z,29.75
2018-10-09T07:20:51.385Z,26.75
2018-10-09T07:23:21.626Z,30.00
2018-10-09T07:25:52.291Z,28.75
2018-10-09T07:28:23.618Z,26.25
2018-10-09T07:31:00.367Z,26.75
2018-10-09T07:33:31.208Z,26.75
2018-10-09T07:36:03.669Z,25.75
2018-10-09T07:38:35.287Z,27.25
2018-10-09T07:41:07.398Z,25.75
2018-10-09T07:43:38.435Z,21.00
2018-10-09T07:46:10.351Z,25.75
2018-10-09T07:48:42.588Z,27.50
2018-10-09T07:51:12.898Z,26.25
2018-10-09T07:53:42.996Z,25.75
2018-10-09T07:56:14.075Z,27.50
2018-10-09T07:58:49.697Z,27.75
2018-10-09T08:01:20.300Z,27.75
2018-10-09T08:03:51.554Z,25.75
2018-10-09T08:06:23.155Z,27.75
2018-10-09T08:08:53.267Z,22.50
2018-10-09T08:11:25.868Z,27.00
2018-10-09T08:13:56.777Z,25.00
2018-10-09T08:16:28.052Z,24.50
2018-10-09T08:19:00.140Z,25.25
2018-10-09T08:21:29.928Z,25.00
2018-10-09T08:24:00.252Z,24.25
2018-10-09T08:26:32.364Z,23.75
2018-10-09T08:29:01.898Z,22.00
2018-10-09T08:31:34.581Z,23.00
2018-10-09T08:34:05.395Z,23.50
2018-10-09T08:36:35.207Z,20.25
2018-10-09T08:39:08.585Z,25.00
2018-10-09T08:41:39.681Z,21.00
2018-10-09T08:44:09.974Z,20.25
2018-10-09T08:46:42.730Z,21.00
2018-10-09T08:49:16.446Z,23.00
2018-10-09T08:51:46.732Z,20.25
2018-10-09T08:54:24.729Z,21.75
2018-10-09T08:56:56.413Z,22.00
2018-10-09T08:59:25.926Z,22.25
2018-10-09T09:01:57.416Z,22.00
2018-10-09T09:04:31.656Z,22.50
2018-10-09T09:07:01.241Z,22.00
2018-10-09T09:09:31.564Z,22.25
2018-10-09T09:12:06.566Z,22.50
2018-10-09T09:14:38.027Z,23.00
2018-10-09T09:17:07.559Z,23.75
2018-10-09T09:19:37.621Z,21.00
2018-10-09T09:22:08.735Z,23.00
2018-10-09T09:24:38.528Z,24.00
2018-10-09T09:27:09.980Z,23.50
2018-10-09T09:29:40.370Z,24.00
2018-10-09T09:32:12.301Z,24.00
2018-10-09T09:34:44.111Z,23.00
2018-10-09T09:37:22.364Z,22.50
2018-10-09T09:39:51.907Z,23.25
2018-10-09T09:42:23.110Z,23.50
2018-10-09T09:44:53.369Z,23.75
2018-10-09T09:47:23.146Z,25.00
2018-10-09T09:49:53.846Z,23.00
2018-10-09T09:52:24.575Z,23.75
2018-10-09T09:54:56.684Z,24.00
2018-10-09T09:57:32.556Z,21.75
2018-10-09T10:00:26.191Z,23.00
2018-10-09T10:03:21.965Z,24.00
2018-10-09T10:05:54.089Z,24.25
2018-10-09T10:08:25.665Z,23.75
2018-10-09T10:11:09.541Z,23.50
2018-10-09T10:13:42.004Z,25.75
2018-10-09T10:16:19.500Z,24.00
2018-10-09T10:18:57.172Z,23.00
2018-10-09T10:21:29.576Z,26.75
2018-10-09T10:24:01.778Z,23.00
2018-10-09T10:26:32.103Z,24.75
2018-10-09T10:29:15.963Z,24.75
2018-10-09T10:31:47.593Z,25.00
2018-10-09T10:34:20.301Z,23.00
2018-10-09T10:36:52.082Z,24.00
2018-10-09T10:39:27.681Z,25.00
2018-10-09T10:42:01.166Z,23.00
2018-10-09T10:44:38.078Z,24.00
2018-10-09T10:47:22.917Z,23.00
2018-10-09T10:49:57.866Z,21.75
2018-10-09T10:52:28.735Z,21.50
2018-10-09T10:55:01.554Z,22.25
2018-10-09T10:57:32.290Z,22.50
2018-10-09T11:00:14.872Z,22.25
2018-10-09T11:02:45.330Z,22.25
2018-10-09T11:05:16.009Z,23.25
2018-10-09T11:07:48.084Z,23.75
2018-10-09T11:10:19.204Z,23.75
2018-10-09T11:12:49.652Z,21.00
2018-10-09T11:15:20.085Z,21.00
2018-10-09T11:17:50.622Z,21.50
2018-10-09T11:20:21.456Z,21.75
2018-10-09T11:22:53.737Z,27.25
2018-10-09T11:25:30.215Z,19.00
2018-10-09T11:28:04.635Z,21.50
2018-10-09T11:30:36.957Z,18.50
2018-10-09T11:33:07.959Z,21.00
2018-10-09T11:35:37.890Z,21.00
2018-10-09T11:38:25.080Z,20.75
2018-10-09T11:40:59.774Z,20.75
2018-10-09T11:43:31.671Z,20.75
2018-10-09T11:46:05.453Z,21.50
2018-10-09T11:48:41.476Z,19.75
2018-10-09T11:51:15.970Z,21.00
2018-10-09T11:53:47.878Z,20.50
2018-10-09T11:56:21.636Z,21.25
2018-10-09T11:58:52.057Z,21.00
2018-10-09T12:01:26.157Z,19.00
2018-10-09T12:04:00.403Z,21.00
2018-10-09T12:06:32.227Z,19.75
2018-10-09T12:09:03.822Z,21.00
2018-10-09T12:11:34.770Z,21.50
2018-10-09T12:14:05.297Z,21.00
2018-10-09T12:16:35.676Z,18.75
2018-10-09T12:19:05.240Z,21.50
2018-10-09T12:21:37.504Z,19.50
2018-10-09T12:24:09.962Z,22.00
2018-10-09T12:26:42.368Z,22.00
2018-10-09T12:29:12.278Z,21.50
2018-10-09T12:31:42.671Z,21.00
2018-10-09T12:34:12.787Z,20.00
2018-10-09T12:36:45.105Z,19.25
2018-10-09T12:39:29.616Z,18.50
2018-10-09T12:42:01.515Z,19.00
2018-10-09T12:44:37.497Z,19.00
2018-10-09T12:47:14.599Z,19.75
2018-10-09T12:49:45.240Z,20.75
2018-10-09T12:52:16.816Z,19.75
2018-10-09T12:57:32.135Z,21.00
2018-10-09T13:00:09.033Z,20.00
2018-10-09T13:02:39.755Z,18.50
2018-10-09T13:05:11.383Z,17.00
2018-10-09T13:07:41.540Z,18.50
2018-10-09T13:10:18.520Z,18.25
2018-10-09T13:12:48.356Z,15.75
2018-10-09T13:15:30.052Z,17.25
2018-10-09T13:18:04.714Z,18.75
2018-10-09T13:20:37.090Z,19.00
2018-10-09T13:23:15.148Z,17.75
2018-10-09T13:25:48.044Z,19.00
2018-10-09T13:28:18.955Z,20.75
2018-10-09T13:30:49.533Z,19.00
2018-10-09T13:33:19.712Z,17.25
2018-10-09T13:38:39.638Z,17.00
2018-10-09T13:41:15.420Z,18.75
2018-10-09T13:43:51.798Z,15.25
2018-10-09T13:46:24.844Z,15.00
2018-10-09T13:48:57.733Z,15.75
2018-10-09T13:51:28.795Z,15.50
2018-10-09T13:54:02.456Z,20.50
2018-10-09T13:56:34.312Z,15.50
2018-10-09T13:59:04.184Z,15.50
2018-10-09T14:01:36.257Z,16.25
2018-10-09T14:04:06.278Z,15.75
2018-10-09T14:06:38.000Z,17.00
2018-10-09T14:09:10.034Z,17.25
2018-10-09T14:11:40.824Z,16.75
2018-10-09T14:14:13.053Z,18.75
2018-10-09T14:16:44.770Z,17.00
2018-10-09T14:19:14.330Z,16.00
2018-10-09T14:21:45.106Z,18.50
2018-10-09T14:24:15.521Z,19.25
2018-10-09T14:26:46.862Z,17.50
2018-10-09T14:29:23.802Z,19.25
2018-10-09T14:31:54.811Z,17.00
2018-10-09T14:34:29.469Z,17.00
2018-10-09T14:36:59.642Z,17.25
2018-10-09T14:39:29.971Z,17.50
2018-10-09T14:42:00.151Z,17.00
2018-10-09T14:44:32.705Z,17.25
2018-10-09T14:47:05.622Z,19.25
2018-10-09T14:49:36.133Z,20.00
2018-10-09T14:52:09.686Z,19.25
2018-10-09T14:54:42.862Z,19.75
2018-10-09T14:57:15.435Z,20.00
2018-10-09T14:59:50.041Z,20.50
2018-10-09T15:02:20.567Z,19.50
2018-10-09T15:04:52.059Z,19.50
2018-10-09T15:07:21.996Z,20.50
2018-10-09T15:09:55.791Z,19.75
2018-10-09T15:12:31.093Z,19.75
2018-10-09T15:15:15.013Z,21.00
2018-10-09T15:17:45.354Z,20.25
2018-10-09T15:20:27.450Z,19.75
2018-10-09T15:23:00.342Z,17.75
2018-10-09T15:25:35.856Z,19.50
2018-10-09T15:28:07.632Z,22.00
2018-10-09T15:30:42.558Z,21.50
2018-10-09T15:33:14.483Z,20.00
2018-10-09T15:35:44.638Z,21.00
2018-10-09T15:38:15.322Z,21.25
2018-10-09T15:40:53.453Z,20.75
2018-10-09T15:43:36.347Z,20.50
2018-10-09T15:46:13.038Z,20.00
2018-10-09T15:49:00.148Z,18.75
2018-10-09T15:51:36.677Z,20.00
2018-10-09T15:54:11.354Z,19.00
2018-10-09T15:56:42.739Z,18.75
2018-10-09T15:59:19.843Z,20.00
2018-10-09T16:04:44.534Z,20.00
2018-10-09T16:07:18.799Z,20.00
2018-10-09T16:09:59.208Z,20.00
2018-10-09T16:12:38.249Z,20.25
2018-10-09T16:15:19.862Z,20.50
2018-10-09T16:17:54.011Z,20.00
2018-10-09T16:20:35.443Z,20.00
2018-10-09T16:23:08.237Z,19.00
2018-10-09T16:25:54.569Z,19.75
2018-10-09T16:28:24.688Z,20.00
2018-10-09T16:30:59.679Z,19.00
2018-10-09T16:33:29.502Z,22.00
2018-10-09T16:36:05.656Z,20.75
2018-10-09T16:38:36.429Z,20.50
2018-10-09T16:41:08.200Z,20.00
2018-10-09T16:43:41.235Z,20.75
2018-10-09T16:46:14.205Z,21.50
2018-10-09T16:51:21.800Z,19.50
2018-10-09T16:54:04.031Z,20.75
2018-10-09T16:56:34.913Z,20.75
2018-10-09T16:59:05.923Z,20.75
2018-10-09T17:01:37.255Z,20.50
2018-10-09T17:04:10.666Z,20.75
2018-10-09T17:09:30.236Z,20.50
2018-10-09T17:12:00.783Z,20.75
2018-10-09T17:14:32.517Z,21.50
2018-10-09T17:17:07.452Z,23.00
2018-10-09T17:19:39.202Z,20.75
2018-10-09T17:22:19.245Z,27.00
2018-10-09T17:25:04.601Z,27.00
2018-10-09T17:27:45.963Z,29.75
2018-10-09T17:30:19.138Z,25.75
2018-10-09T17:32:51.659Z,25.75
2018-10-09T17:35:25.622Z,28.75
2018-10-09T17:37:56.525Z,27.00
2018-10-09T17:40:30.443Z,27.00
2018-10-09T17:43:02.111Z,25.75
2018-10-09T17:45:34.434Z,25.00
2018-10-09T17:48:05.487Z,24.75
2018-10-09T17:50:39.325Z,23.75
2018-10-09T17:53:10.088Z,23.75
2018-10-09T17:55:40.487Z,24.00
2018-10-09T17:58:10.271Z,25.00
2018-10-09T18:00:44.982Z,25.00
2018-10-09T18:03:28.022Z,25.00
2018-10-09T18:06:01.398Z,24.00
2018-10-09T18:08:33.694Z,23.00
2018-10-09T18:11:05.942Z,24.00
2018-10-09T18:13:36.659Z,24.50
2018-10-09T18:16:11.069Z,24.25
2018-10-09T18:18:42.340Z,25.75
2018-10-09T18:21:13.499Z,24.25
2018-10-09T18:23:45.964Z,27.00
2018-10-09T18:28:51.230Z,25.00
2018-10-09T18:31:34.133Z,24.00
2018-10-09T18:34:06.671Z,24.75
2018-10-09T18:36:37.508Z,24.50
2018-10-09T18:39:14.258Z,25.00
2018-10-09T18:41:47.398Z,25.00
2018-10-09T18:44:18.006Z,28.50
2018-10-09T18:46:49.269Z,29.75
2018-10-09T18:49:21.047Z,25.75
2018-10-09T18:51:51.647Z,27.00
2018-10-09T18:54:23.803Z,40.00
2018-10-09T18:56:57.309Z,29.00
2018-10-09T18:59:30.091Z,26.75
2018-10-09T19:02:05.560Z,26.50
2018-10-09T19:04:40.561Z,27.00
2018-10-09T19:07:15.356Z,31.75
2018-10-09T19:09:45.769Z,31.75
2018-10-09T19:12:18.862Z,28.25
2018-10-09T19:14:49.931Z,31.00
2018-10-09T19:17:25.124Z,29.00
2018-10-09T19:19:55.573Z,32.00
2018-10-09T19:22:26.181Z,31.50
2018-10-09T19:24:55.725Z,31.75
2018-10-09T19:27:37.209Z,30.75
2018-10-09T19:30:22.699Z,30.25
2018-10-09T19:32:54.847Z,26.00
2018-10-09T19:35:28.267Z,25.00
2018-10-09T19:38:01.409Z,27.00
2018-10-09T19:40:34.296Z,27.25
2018-10-09T19:43:11.234Z,24.00
2018-10-09T19:45:47.366Z,24.25
2018-10-09T19:48:18.304Z,25.00
2018-10-09T19:50:50.297Z,23.25
2018-10-09T19:53:24.606Z,23.75
2018-10-09T19:55:58.723Z,24.00
2018-10-09T19:58:34.839Z,24.25
2018-10-09T20:01:18.571Z,25.75
2018-10-09T20:03:50.348Z,25.75
2018-10-09T20:06:22.480Z,23.75
2018-10-09T20:09:00.292Z,25.75
2018-10-09T20:11:34.064Z,23.50
2018-10-09T20:14:05.493Z,23.25
2018-10-09T20:16:38.639Z,25.75
2018-10-09T20:19:19.540Z,24.75
2018-10-09T20:21:54.210Z,23.00
2018-10-09T20:24:25.879Z,23.00
2018-10-09T20:26:58.386Z,22.50
2018-10-09T20:29:37.488Z,23.00
2018-10-09T20:32:11.158Z,23.00
2018-10-09T20:34:43.229Z,21.75
2018-10-09T20:37:13.739Z,23.25
2018-10-09T20:39:44.389Z,23.00
2018-10-09T20:42:15.684Z,23.00
2018-10-09T20:44:46.731Z,24.25
2018-10-09T20:47:50.250Z,23.00
2018-10-09T20:50:24.642Z,24.75
2018-10-09T20:52:57.121Z,25.50
2018-10-09T20:55:29.172Z,24.75
2018-10-09T20:58:00.483Z,24.50
2018-10-09T21:00:31.577Z,22.50
2018-10-09T21:03:01.365Z,25.25
2018-10-09T21:05:32.683Z,24.25
2018-10-09T21:08:08.283Z,24.50
2018-10-09T21:10:45.395Z,24.75
2018-10-09T21:13:20.570Z,23.75
2018-10-09T21:15:53.721Z,26.00
2018-10-09T21:18:27.530Z,23.75
2018-10-09T21:20:57.829Z,23.75
2018-10-09T21:23:27.715Z,23.75
2018-10-09T21:25:57.915Z,23.75
2018-10-09T21:28:34.333Z,24.75
2018-10-09T21:31:05.904Z,23.00
2018-10-09T21:33:36.784Z,24.50
2018-10-09T21:36:06.767Z,23.50
2018-10-09T21:41:30.568Z,23.75
2018-10-09T21:44:00.728Z,23.50
2018-10-09T21:46:32.391Z,23.25
2018-10-09T21:49:02.505Z,24.00
2018-10-09T21:51:33.166Z,24.50
2018-10-09T21:54:03.169Z,24.00
2018-10-09T21:56:33.382Z,24.00
2018-10-09T21:59:03.706Z,24.00
2018-10-09T22:01:33.845Z,23.50
2018-10-09T22:04:06.339Z,24.00
2018-10-09T22:06:39.301Z,24.00
2018-10-09T22:09:09.616Z,24.00
2018-10-09T22:11:39.295Z,26.00
2018-10-09T22:14:09.836Z,25.25
2018-10-09T22:16:41.121Z,23.25
2018-10-09T22:19:13.306Z,24.00
2018-10-09T22:21:45.072Z,26.00
2018-10-09T22:24:15.303Z,24.50
2018-10-09T22:26:45.543Z,24.00
2018-10-09T22:29:15.494Z,24.00
2018-10-09T22:31:48.713Z,24.00
2018-10-09T22:34:18.514Z,23.75
2018-10-09T22:36:49.430Z,26.00
2018-10-09T22:39:19.404Z,24.25
2018-10-09T22:44:27.932Z,25.25
2018-10-09T22:46:58.342Z,26.00
2018-10-09T22:49:28.882Z,25.75
2018-10-09T22:52:00.213Z,25.25
2018-10-09T22:54:29.973Z,26.50
2018-10-09T22:56:59.631Z,25.25
2018-10-09T22:59:33.952Z,26.75
2018-10-09T23:04:51.439Z,26.00
2018-10-09T23:07:22.380Z,26.25
2018-10-09T23:09:53.266Z,26.25
2018-10-09T23:14:55.165Z,26.00
2018-10-09T23:17:25.173Z,26.50
2018-10-09T23:19:55.135Z,24.75
2018-10-09T23:22:25.521Z,26.00
2018-10-09T23:24:56.449Z,25.25
2018-10-09T23:27:26.470Z,25.75
2018-10-09T23:29:56.360Z,26.00
2018-10-09T23:32:26.110Z,25.25
2018-10-09T23:34:56.249Z,25.75
2018-10-09T23:37:26.357Z,25.50
2018-10-09T23:39:56.205Z,26.00
2018-10-09T23:42:26.760Z,25.25
2018-10-09T23:44:59.238Z,27.00
2018-10-09T23:47:29.137Z,26.00
2018-10-09T23:49:59.710Z,25.00
2018-10-09T23:52:29.318Z,26.00
2018-10-09T23:54:58.939Z,25.25
2018-10-09T23:57:28.935Z,26.50
2018-10-09T23:59:58.499Z,25.50
